sensor_id;sensor_type;location;lat;lon;timestamp;temperature;humidity
82183;DHT22;71763;52.220;13.000;2023-12-20T00:00:16;6.70;71.70
82183;DHT22;71763;52.220;13.000;2023-12-20T00:02:42;6.70;71.80
82183;DHT22;71763;52.220;13.000;2023-12-20T00:05:12;6.70;71.90
82183;DHT22;71763;52.220;13.000;2023-12-20T00:07:38;6.70;71.80
82183;DHT22;71763;52.220;13.000;2023-12-20T00:10:04;6.70;71.80
82183;DHT22;71763;52.220;13.000;2023-12-20T00:12:30;6.70;71.90
82183;DHT22;71763;52.220;13.000;2023-12-20T00:14:55;6.70;71.90
82183;DHT22;71763;52.220;13.000;2023-12-20T00:17:21;6.70;71.90
82183;DHT22;71763;52.220;13.000;2023-12-20T00:19:46;6.70;71.90
82183;DHT22;71763;52.220;13.000;2023-12-20T00:22:12;6.70;71.90
82183;DHT22;71763;52.220;13.000;2023-12-20T00:24:37;6.70;72.00
82183;DHT22;71763;52.220;13.000;2023-12-20T00:27:03;6.70;71.90
82183;DHT22;71763;52.220;13.000;2023-12-20T00:29:28;6.80;72.00
82183;DHT22;71763;52.220;13.000;2023-12-20T00:31:54;6.80;72.00
82183;DHT22;71763;52.220;13.000;2023-12-20T00:34:19;6.80;72.00
82183;DHT22;71763;52.220;13.000;2023-12-20T00:36:45;6.80;72.00
82183;DHT22;71763;52.220;13.000;2023-12-20T00:39:10;6.80;72.00
82183;DHT22;71763;52.220;13.000;2023-12-20T00:41:36;6.80;72.00
82183;DHT22;71763;52.220;13.000;2023-12-20T00:44:01;6.80;72.00
82183;DHT22;71763;52.220;13.000;2023-12-20T00:46:27;6.80;72.00
82183;DHT22;71763;52.220;13.000;2023-12-20T00:48:52;6.80;72.00
82183;DHT22;71763;52.220;13.000;2023-12-20T00:51:18;6.80;71.90
82183;DHT22;71763;52.220;13.000;2023-12-20T00:53:43;6.80;72.00
82183;DHT22;71763;52.220;13.000;2023-12-20T00:56:09;6.80;72.00
82183;DHT22;71763;52.220;13.000;2023-12-20T00:58:34;6.80;72.00
82183;DHT22;71763;52.220;13.000;2023-12-20T01:01:00;6.80;72.10
82183;DHT22;71763;52.220;13.000;2023-12-20T01:03:26;6.80;72.10
82183;DHT22;71763;52.220;13.000;2023-12-20T01:05:51;6.80;72.00
82183;DHT22;71763;52.220;13.000;2023-12-20T01:08:17;6.80;72.00
82183;DHT22;71763;52.220;13.000;2023-12-20T01:10:42;6.80;72.10
82183;DHT22;71763;52.220;13.000;2023-12-20T01:13:08;6.80;72.10
82183;DHT22;71763;52.220;13.000;2023-12-20T01:15:34;6.80;72.10
82183;DHT22;71763;52.220;13.000;2023-12-20T01:17:59;6.80;72.10
82183;DHT22;71763;52.220;13.000;2023-12-20T01:20:25;6.80;72.00
82183;DHT22;71763;52.220;13.000;2023-12-20T01:22:51;6.80;72.00
82183;DHT22;71763;52.220;13.000;2023-12-20T01:25:16;6.80;72.10
82183;DHT22;71763;52.220;13.000;2023-12-20T01:27:42;6.80;72.10
82183;DHT22;71763;52.220;13.000;2023-12-20T01:30:07;6.80;72.10
82183;DHT22;71763;52.220;13.000;2023-12-20T01:32:33;6.80;72.10
82183;DHT22;71763;52.220;13.000;2023-12-20T01:34:58;6.90;72.20
82183;DHT22;71763;52.220;13.000;2023-12-20T01:37:24;6.90;72.20
82183;DHT22;71763;52.220;13.000;2023-12-20T01:39:50;6.80;72.20
82183;DHT22;71763;52.220;13.000;2023-12-20T01:42:16;6.90;72.20
82183;DHT22;71763;52.220;13.000;2023-12-20T01:44:41;6.80;72.20
82183;DHT22;71763;52.220;13.000;2023-12-20T01:47:07;6.80;72.30
82183;DHT22;71763;52.220;13.000;2023-12-20T01:49:33;6.90;72.30
82183;DHT22;71763;52.220;13.000;2023-12-20T01:51:58;6.80;72.30
82183;DHT22;71763;52.220;13.000;2023-12-20T01:54:24;6.80;72.20
82183;DHT22;71763;52.220;13.000;2023-12-20T01:56:50;6.80;72.20
82183;DHT22;71763;52.220;13.000;2023-12-20T01:59:17;6.90;72.40
82183;DHT22;71763;52.220;13.000;2023-12-20T02:01:44;6.80;72.30
82183;DHT22;71763;52.220;13.000;2023-12-20T02:04:09;6.90;72.40
82183;DHT22;71763;52.220;13.000;2023-12-20T02:06:35;6.80;72.30
82183;DHT22;71763;52.220;13.000;2023-12-20T02:09:02;6.80;72.30
82183;DHT22;71763;52.220;13.000;2023-12-20T02:11:27;6.90;72.60
82183;DHT22;71763;52.220;13.000;2023-12-20T02:13:54;6.90;72.50
82183;DHT22;71763;52.220;13.000;2023-12-20T02:16:19;6.90;72.40
82183;DHT22;71763;52.220;13.000;2023-12-20T02:18:45;6.90;72.50
82183;DHT22;71763;52.220;13.000;2023-12-20T02:21:11;6.90;72.50
82183;DHT22;71763;52.220;13.000;2023-12-20T02:23:36;6.90;72.40
82183;DHT22;71763;52.220;13.000;2023-12-20T02:26:03;6.90;72.40
82183;DHT22;71763;52.220;13.000;2023-12-20T02:28:30;6.90;72.40
82183;DHT22;71763;52.220;13.000;2023-12-20T02:30:55;6.90;72.50
82183;DHT22;71763;52.220;13.000;2023-12-20T02:33:21;6.90;72.50
82183;DHT22;71763;52.220;13.000;2023-12-20T02:35:46;6.90;72.50
82183;DHT22;71763;52.220;13.000;2023-12-20T02:38:12;6.90;72.50
82183;DHT22;71763;52.220;13.000;2023-12-20T02:40:38;6.90;72.50
82183;DHT22;71763;52.220;13.000;2023-12-20T02:43:03;6.90;72.40
82183;DHT22;71763;52.220;13.000;2023-12-20T02:45:29;6.90;72.40
82183;DHT22;71763;52.220;13.000;2023-12-20T02:47:55;7.00;72.50
82183;DHT22;71763;52.220;13.000;2023-12-20T02:50:20;7.00;72.60
82183;DHT22;71763;52.220;13.000;2023-12-20T02:52:46;7.00;72.60
82183;DHT22;71763;52.220;13.000;2023-12-20T02:55:11;7.00;72.60
82183;DHT22;71763;52.220;13.000;2023-12-20T02:57:37;7.00;72.60
82183;DHT22;71763;52.220;13.000;2023-12-20T03:00:10;7.00;72.60
82183;DHT22;71763;52.220;13.000;2023-12-20T03:02:36;7.00;72.60
82183;DHT22;71763;52.220;13.000;2023-12-20T03:05:02;7.00;72.60
82183;DHT22;71763;52.220;13.000;2023-12-20T03:07:28;7.00;72.60
82183;DHT22;71763;52.220;13.000;2023-12-20T03:09:53;7.00;72.70
82183;DHT22;71763;52.220;13.000;2023-12-20T03:12:19;7.00;72.70
82183;DHT22;71763;52.220;13.000;2023-12-20T03:14:45;7.00;72.70
82183;DHT22;71763;52.220;13.000;2023-12-20T03:17:10;7.00;72.80
82183;DHT22;71763;52.220;13.000;2023-12-20T03:19:36;7.00;72.70
82183;DHT22;71763;52.220;13.000;2023-12-20T03:22:01;7.00;72.80
82183;DHT22;71763;52.220;13.000;2023-12-20T03:24:27;7.00;72.80
82183;DHT22;71763;52.220;13.000;2023-12-20T03:26:53;7.00;72.90
82183;DHT22;71763;52.220;13.000;2023-12-20T03:29:18;7.00;72.90
82183;DHT22;71763;52.220;13.000;2023-12-20T03:31:44;7.00;73.50
82183;DHT22;71763;52.220;13.000;2023-12-20T03:34:11;7.00;72.90
82183;DHT22;71763;52.220;13.000;2023-12-20T03:36:36;7.00;72.90
82183;DHT22;71763;52.220;13.000;2023-12-20T03:39:02;7.00;72.90
82183;DHT22;71763;52.220;13.000;2023-12-20T03:41:28;7.00;72.90
82183;DHT22;71763;52.220;13.000;2023-12-20T03:43:54;7.00;72.90
82183;DHT22;71763;52.220;13.000;2023-12-20T03:46:19;7.10;72.90
82183;DHT22;71763;52.220;13.000;2023-12-20T03:48:45;7.00;72.90
82183;DHT22;71763;52.220;13.000;2023-12-20T03:51:10;7.00;72.80
82183;DHT22;71763;52.220;13.000;2023-12-20T03:53:36;7.00;73.00
82183;DHT22;71763;52.220;13.000;2023-12-20T03:56:02;7.00;73.00
82183;DHT22;71763;52.220;13.000;2023-12-20T03:58:27;7.00;73.10
82183;DHT22;71763;52.220;13.000;2023-12-20T04:00:53;6.90;73.10
82183;DHT22;71763;52.220;13.000;2023-12-20T04:03:18;6.90;73.20
82183;DHT22;71763;52.220;13.000;2023-12-20T04:05:44;7.00;73.30
82183;DHT22;71763;52.220;13.000;2023-12-20T04:08:10;6.90;73.20
82183;DHT22;71763;52.220;13.000;2023-12-20T04:10:35;6.90;73.20
82183;DHT22;71763;52.220;13.000;2023-12-20T04:13:03;6.90;73.20
82183;DHT22;71763;52.220;13.000;2023-12-20T04:15:28;6.90;73.20
82183;DHT22;71763;52.220;13.000;2023-12-20T04:17:54;6.90;73.20
82183;DHT22;71763;52.220;13.000;2023-12-20T04:20:19;6.90;73.20
82183;DHT22;71763;52.220;13.000;2023-12-20T04:22:45;6.90;73.20
82183;DHT22;71763;52.220;13.000;2023-12-20T04:25:11;6.90;73.20
82183;DHT22;71763;52.220;13.000;2023-12-20T04:27:36;6.90;73.20
82183;DHT22;71763;52.220;13.000;2023-12-20T04:30:02;6.90;73.20
82183;DHT22;71763;52.220;13.000;2023-12-20T04:32:27;6.90;73.10
82183;DHT22;71763;52.220;13.000;2023-12-20T04:34:53;6.90;73.00
82183;DHT22;71763;52.220;13.000;2023-12-20T04:37:18;6.90;73.00
82183;DHT22;71763;52.220;13.000;2023-12-20T04:39:44;6.90;73.20
82183;DHT22;71763;52.220;13.000;2023-12-20T04:42:09;6.80;73.90
82183;DHT22;71763;52.220;13.000;2023-12-20T04:44:35;6.80;73.20
82183;DHT22;71763;52.220;13.000;2023-12-20T04:47:00;6.70;74.00
82183;DHT22;71763;52.220;13.000;2023-12-20T04:49:26;6.60;73.40
82183;DHT22;71763;52.220;13.000;2023-12-20T04:51:52;6.60;73.50
82183;DHT22;71763;52.220;13.000;2023-12-20T04:54:17;6.50;73.60
82183;DHT22;71763;52.220;13.000;2023-12-20T04:56:43;6.40;73.70
82183;DHT22;71763;52.220;13.000;2023-12-20T04:59:08;6.30;73.80
82183;DHT22;71763;52.220;13.000;2023-12-20T05:01:34;6.30;73.90
82183;DHT22;71763;52.220;13.000;2023-12-20T05:03:59;6.20;73.80
82183;DHT22;71763;52.220;13.000;2023-12-20T05:06:25;6.20;74.00
82183;DHT22;71763;52.220;13.000;2023-12-20T05:08:50;6.10;73.90
82183;DHT22;71763;52.220;13.000;2023-12-20T05:11:17;6.10;74.00
82183;DHT22;71763;52.220;13.000;2023-12-20T05:13:43;6.00;74.00
82183;DHT22;71763;52.220;13.000;2023-12-20T05:16:08;5.90;74.10
82183;DHT22;71763;52.220;13.000;2023-12-20T05:18:34;5.90;74.20
82183;DHT22;71763;52.220;13.000;2023-12-20T05:21:00;6.00;74.20
82183;DHT22;71763;52.220;13.000;2023-12-20T05:23:26;6.00;73.90
82183;DHT22;71763;52.220;13.000;2023-12-20T05:25:51;6.10;73.70
82183;DHT22;71763;52.220;13.000;2023-12-20T05:28:17;6.10;73.70
82183;DHT22;71763;52.220;13.000;2023-12-20T05:30:42;6.00;73.60
82183;DHT22;71763;52.220;13.000;2023-12-20T05:33:08;6.00;73.60
82183;DHT22;71763;52.220;13.000;2023-12-20T05:35:34;6.00;73.60
82183;DHT22;71763;52.220;13.000;2023-12-20T05:38:00;6.10;73.70
82183;DHT22;71763;52.220;13.000;2023-12-20T05:40:25;6.10;73.40
82183;DHT22;71763;52.220;13.000;2023-12-20T05:42:51;6.00;73.20
82183;DHT22;71763;52.220;13.000;2023-12-20T05:45:16;6.00;73.20
82183;DHT22;71763;52.220;13.000;2023-12-20T05:47:42;5.90;73.50
82183;DHT22;71763;52.220;13.000;2023-12-20T05:50:08;5.90;73.60
82183;DHT22;71763;52.220;13.000;2023-12-20T05:52:34;5.90;73.60
82183;DHT22;71763;52.220;13.000;2023-12-20T05:54:59;5.80;74.10
82183;DHT22;71763;52.220;13.000;2023-12-20T05:57:27;5.80;73.50
82183;DHT22;71763;52.220;13.000;2023-12-20T05:59:52;5.70;73.60
82183;DHT22;71763;52.220;13.000;2023-12-20T06:02:18;5.60;73.60
82183;DHT22;71763;52.220;13.000;2023-12-20T06:04:44;5.60;73.70
82183;DHT22;71763;52.220;13.000;2023-12-20T06:07:12;5.50;73.80
82183;DHT22;71763;52.220;13.000;2023-12-20T06:09:37;5.50;74.00
82183;DHT22;71763;52.220;13.000;2023-12-20T06:12:03;5.40;73.90
82183;DHT22;71763;52.220;13.000;2023-12-20T06:14:29;5.40;74.00
82183;DHT22;71763;52.220;13.000;2023-12-20T06:16:56;5.30;73.90
82183;DHT22;71763;52.220;13.000;2023-12-20T06:19:22;5.30;73.90
82183;DHT22;71763;52.220;13.000;2023-12-20T06:21:47;5.30;73.80
82183;DHT22;71763;52.220;13.000;2023-12-20T06:24:13;5.30;73.80
82183;DHT22;71763;52.220;13.000;2023-12-20T06:26:38;5.30;73.80
82183;DHT22;71763;52.220;13.000;2023-12-20T06:29:04;5.30;73.70
82183;DHT22;71763;52.220;13.000;2023-12-20T06:31:29;5.30;73.70
82183;DHT22;71763;52.220;13.000;2023-12-20T06:33:55;5.30;73.50
82183;DHT22;71763;52.220;13.000;2023-12-20T06:36:28;5.40;73.40
82183;DHT22;71763;52.220;13.000;2023-12-20T06:38:54;5.40;73.30
82183;DHT22;71763;52.220;13.000;2023-12-20T06:41:19;5.30;73.20
82183;DHT22;71763;52.220;13.000;2023-12-20T06:43:45;5.40;73.30
82183;DHT22;71763;52.220;13.000;2023-12-20T06:46:10;5.40;73.20
82183;DHT22;71763;52.220;13.000;2023-12-20T06:48:36;5.40;73.10
82183;DHT22;71763;52.220;13.000;2023-12-20T06:51:02;5.40;73.00
82183;DHT22;71763;52.220;13.000;2023-12-20T06:53:28;5.40;73.10
82183;DHT22;71763;52.220;13.000;2023-12-20T06:55:54;5.40;73.00
82183;DHT22;71763;52.220;13.000;2023-12-20T06:58:21;5.40;73.00
82183;DHT22;71763;52.220;13.000;2023-12-20T07:00:47;5.40;72.90
82183;DHT22;71763;52.220;13.000;2023-12-20T07:03:12;5.40;72.90
82183;DHT22;71763;52.220;13.000;2023-12-20T07:05:38;5.50;73.70
82183;DHT22;71763;52.220;13.000;2023-12-20T07:08:04;5.50;73.00
82183;DHT22;71763;52.220;13.000;2023-12-20T07:10:30;5.50;73.00
82183;DHT22;71763;52.220;13.000;2023-12-20T07:12:55;5.50;72.90
82183;DHT22;71763;52.220;13.000;2023-12-20T07:15:22;5.50;72.80
82183;DHT22;71763;52.220;13.000;2023-12-20T07:17:47;5.60;72.90
82183;DHT22;71763;52.220;13.000;2023-12-20T07:20:13;5.60;72.80
82183;DHT22;71763;52.220;13.000;2023-12-20T07:22:40;5.60;72.70
82183;DHT22;71763;52.220;13.000;2023-12-20T07:25:07;5.70;72.70
82183;DHT22;71763;52.220;13.000;2023-12-20T07:27:32;5.70;72.60
82183;DHT22;71763;52.220;13.000;2023-12-20T07:29:58;5.70;72.40
82183;DHT22;71763;52.220;13.000;2023-12-20T07:32:24;5.70;72.40
82183;DHT22;71763;52.220;13.000;2023-12-20T07:34:49;5.70;72.40
82183;DHT22;71763;52.220;13.000;2023-12-20T07:37:15;5.80;72.40
82183;DHT22;71763;52.220;13.000;2023-12-20T07:39:41;5.80;72.30
82183;DHT22;71763;52.220;13.000;2023-12-20T07:42:07;5.90;72.30
82183;DHT22;71763;52.220;13.000;2023-12-20T07:44:33;5.90;72.20
82183;DHT22;71763;52.220;13.000;2023-12-20T07:46:59;5.90;72.00
82183;DHT22;71763;52.220;13.000;2023-12-20T07:49:24;5.90;72.00
82183;DHT22;71763;52.220;13.000;2023-12-20T07:51:50;5.90;72.00
82183;DHT22;71763;52.220;13.000;2023-12-20T07:54:16;6.00;72.00
82183;DHT22;71763;52.220;13.000;2023-12-20T07:56:41;6.00;72.00
82183;DHT22;71763;52.220;13.000;2023-12-20T07:59:07;6.10;72.00
82183;DHT22;71763;52.220;13.000;2023-12-20T08:01:32;6.00;71.90
82183;DHT22;71763;52.220;13.000;2023-12-20T08:03:58;6.10;71.90
82183;DHT22;71763;52.220;13.000;2023-12-20T08:06:23;6.10;71.80
82183;DHT22;71763;52.220;13.000;2023-12-20T08:08:49;6.10;71.80
82183;DHT22;71763;52.220;13.000;2023-12-20T08:11:15;6.10;71.80
82183;DHT22;71763;52.220;13.000;2023-12-20T08:13:40;6.10;71.80
82183;DHT22;71763;52.220;13.000;2023-12-20T08:16:06;6.10;71.80
82183;DHT22;71763;52.220;13.000;2023-12-20T08:18:31;6.10;71.80
82183;DHT22;71763;52.220;13.000;2023-12-20T08:20:57;6.10;71.90
82183;DHT22;71763;52.220;13.000;2023-12-20T08:23:22;6.10;71.90
82183;DHT22;71763;52.220;13.000;2023-12-20T08:25:49;6.10;71.90
82183;DHT22;71763;52.220;13.000;2023-12-20T08:28:15;6.10;71.90
82183;DHT22;71763;52.220;13.000;2023-12-20T08:30:40;6.20;71.90
82183;DHT22;71763;52.220;13.000;2023-12-20T08:33:06;6.10;71.80
82183;DHT22;71763;52.220;13.000;2023-12-20T08:35:39;6.20;71.90
82183;DHT22;71763;52.220;13.000;2023-12-20T08:38:05;6.20;71.80
82183;DHT22;71763;52.220;13.000;2023-12-20T08:40:31;6.30;71.90
82183;DHT22;71763;52.220;13.000;2023-12-20T08:42:56;6.30;71.90
82183;DHT22;71763;52.220;13.000;2023-12-20T08:45:22;6.30;71.80
82183;DHT22;71763;52.220;13.000;2023-12-20T08:47:47;6.30;71.70
82183;DHT22;71763;52.220;13.000;2023-12-20T08:50:13;6.30;72.30
82183;DHT22;71763;52.220;13.000;2023-12-20T08:52:39;6.20;71.70
82183;DHT22;71763;52.220;13.000;2023-12-20T08:55:05;6.20;71.80
82183;DHT22;71763;52.220;13.000;2023-12-20T08:57:31;6.10;71.80
82183;DHT22;71763;52.220;13.000;2023-12-20T08:59:57;6.20;72.00
82183;DHT22;71763;52.220;13.000;2023-12-20T09:02:23;6.30;71.90
82183;DHT22;71763;52.220;13.000;2023-12-20T09:04:49;6.40;71.80
82183;DHT22;71763;52.220;13.000;2023-12-20T09:07:22;6.50;71.20
82183;DHT22;71763;52.220;13.000;2023-12-20T09:09:47;6.60;70.90
82183;DHT22;71763;52.220;13.000;2023-12-20T09:12:13;6.80;70.50
82183;DHT22;71763;52.220;13.000;2023-12-20T09:14:39;6.90;70.30
82183;DHT22;71763;52.220;13.000;2023-12-20T09:17:04;7.00;69.90
82183;DHT22;71763;52.220;13.000;2023-12-20T09:19:30;6.90;69.90
82183;DHT22;71763;52.220;13.000;2023-12-20T09:21:55;6.90;70.20
82183;DHT22;71763;52.220;13.000;2023-12-20T09:24:21;6.80;70.40
82183;DHT22;71763;52.220;13.000;2023-12-20T09:26:47;6.90;70.60
82183;DHT22;71763;52.220;13.000;2023-12-20T09:29:12;6.90;70.60
82183;DHT22;71763;52.220;13.000;2023-12-20T09:31:41;6.90;70.60
82183;DHT22;71763;52.220;13.000;2023-12-20T09:34:07;7.00;70.70
82183;DHT22;71763;52.220;13.000;2023-12-20T09:36:32;7.00;70.50
82183;DHT22;71763;52.220;13.000;2023-12-20T09:39:01;7.10;70.50
82183;DHT22;71763;52.220;13.000;2023-12-20T09:41:29;7.20;70.40
82183;DHT22;71763;52.220;13.000;2023-12-20T09:44:01;7.20;70.10
82183;DHT22;71763;52.220;13.000;2023-12-20T09:46:29;7.30;69.90
82183;DHT22;71763;52.220;13.000;2023-12-20T09:48:59;7.40;70.00
82183;DHT22;71763;52.220;13.000;2023-12-20T09:51:26;7.40;69.80
82183;DHT22;71763;52.220;13.000;2023-12-20T09:53:54;7.60;69.70
82183;DHT22;71763;52.220;13.000;2023-12-20T09:56:22;8.10;69.30
82183;DHT22;71763;52.220;13.000;2023-12-20T09:58:48;9.30;65.60
82183;DHT22;71763;52.220;13.000;2023-12-20T10:01:15;10.80;60.10
82183;DHT22;71763;52.220;13.000;2023-12-20T10:03:41;11.70;57.90
82183;DHT22;71763;52.220;13.000;2023-12-20T10:06:07;11.80;56.90
82183;DHT22;71763;52.220;13.000;2023-12-20T10:08:34;11.00;58.30
82183;DHT22;71763;52.220;13.000;2023-12-20T10:10:59;10.20;61.00
82183;DHT22;71763;52.220;13.000;2023-12-20T10:13:28;9.50;64.10
82183;DHT22;71763;52.220;13.000;2023-12-20T10:15:55;9.00;66.20
82183;DHT22;71763;52.220;13.000;2023-12-20T10:18:21;8.70;67.70
82183;DHT22;71763;52.220;13.000;2023-12-20T10:20:48;8.40;68.30
82183;DHT22;71763;52.220;13.000;2023-12-20T10:23:15;8.20;68.50
82183;DHT22;71763;52.220;13.000;2023-12-20T10:25:41;8.10;69.00
82183;DHT22;71763;52.220;13.000;2023-12-20T10:28:16;8.10;69.10
82183;DHT22;71763;52.220;13.000;2023-12-20T10:30:48;8.10;69.00
82183;DHT22;71763;52.220;13.000;2023-12-20T10:33:41;8.10;68.90
82183;DHT22;71763;52.220;13.000;2023-12-20T10:36:18;8.10;68.90
82183;DHT22;71763;52.220;13.000;2023-12-20T10:38:46;8.00;68.80
82183;DHT22;71763;52.220;13.000;2023-12-20T10:41:23;8.00;68.50
82183;DHT22;71763;52.220;13.000;2023-12-20T10:49:05;8.00;69.20
82183;DHT22;71763;52.220;13.000;2023-12-20T10:51:31;8.00;69.00
82183;DHT22;71763;52.220;13.000;2023-12-20T10:53:57;8.00;68.20
82183;DHT22;71763;52.220;13.000;2023-12-20T10:56:23;8.00;69.00
82183;DHT22;71763;52.220;13.000;2023-12-20T10:58:52;7.90;68.00
82183;DHT22;71763;52.220;13.000;2023-12-20T11:01:18;7.90;68.60
82183;DHT22;71763;52.220;13.000;2023-12-20T11:03:52;7.80;69.10
82183;DHT22;71763;52.220;13.000;2023-12-20T11:06:36;7.80;69.20
82183;DHT22;71763;52.220;13.000;2023-12-20T11:09:16;7.80;69.30
82183;DHT22;71763;52.220;13.000;2023-12-20T11:12:06;7.70;69.30
82183;DHT22;71763;52.220;13.000;2023-12-20T11:17:07;7.70;69.30
82183;DHT22;71763;52.220;13.000;2023-12-20T11:19:36;7.70;69.20
82183;DHT22;71763;52.220;13.000;2023-12-20T11:22:03;7.70;69.20
82183;DHT22;71763;52.220;13.000;2023-12-20T11:24:31;7.70;69.20
82183;DHT22;71763;52.220;13.000;2023-12-20T11:26:59;7.70;69.10
82183;DHT22;71763;52.220;13.000;2023-12-20T11:29:37;7.80;69.10
82183;DHT22;71763;52.220;13.000;2023-12-20T11:34:47;7.70;68.70
82183;DHT22;71763;52.220;13.000;2023-12-20T11:37:13;7.70;68.80
82183;DHT22;71763;52.220;13.000;2023-12-20T11:39:38;7.60;68.80
82183;DHT22;71763;52.220;13.000;2023-12-20T11:42:04;7.60;68.90
82183;DHT22;71763;52.220;13.000;2023-12-20T11:44:31;7.60;68.80
82183;DHT22;71763;52.220;13.000;2023-12-20T11:46:57;7.60;69.00
82183;DHT22;71763;52.220;13.000;2023-12-20T11:49:24;7.60;69.00
82183;DHT22;71763;52.220;13.000;2023-12-20T11:51:50;7.60;68.80
82183;DHT22;71763;52.220;13.000;2023-12-20T11:54:16;7.60;68.80
82183;DHT22;71763;52.220;13.000;2023-12-20T11:56:42;7.60;68.20
82183;DHT22;71763;52.220;13.000;2023-12-20T11:59:08;7.60;68.90
82183;DHT22;71763;52.220;13.000;2023-12-20T12:01:34;7.60;69.00
82183;DHT22;71763;52.220;13.000;2023-12-20T12:04:04;7.50;68.90
82183;DHT22;71763;52.220;13.000;2023-12-20T12:06:30;7.50;69.00
82183;DHT22;71763;52.220;13.000;2023-12-20T12:08:56;7.50;69.10
82183;DHT22;71763;52.220;13.000;2023-12-20T12:11:22;7.60;69.10
82183;DHT22;71763;52.220;13.000;2023-12-20T12:13:48;7.50;69.00
82183;DHT22;71763;52.220;13.000;2023-12-20T12:16:17;7.50;69.10
82183;DHT22;71763;52.220;13.000;2023-12-20T12:18:44;7.50;69.20
82183;DHT22;71763;52.220;13.000;2023-12-20T12:21:10;7.50;69.20
82183;DHT22;71763;52.220;13.000;2023-12-20T12:23:36;7.50;69.20
82183;DHT22;71763;52.220;13.000;2023-12-20T12:26:04;7.50;69.20
82183;DHT22;71763;52.220;13.000;2023-12-20T12:28:29;7.50;69.10
82183;DHT22;71763;52.220;13.000;2023-12-20T12:30:57;7.50;69.20
82183;DHT22;71763;52.220;13.000;2023-12-20T12:33:31;7.50;69.10
82183;DHT22;71763;52.220;13.000;2023-12-20T12:35:57;7.40;69.20
82183;DHT22;71763;52.220;13.000;2023-12-20T12:38:26;7.40;69.30
82183;DHT22;71763;52.220;13.000;2023-12-20T12:40:52;7.40;69.40
82183;DHT22;71763;52.220;13.000;2023-12-20T12:43:19;7.40;69.30
82183;DHT22;71763;52.220;13.000;2023-12-20T12:45:47;7.40;69.20
82183;DHT22;71763;52.220;13.000;2023-12-20T12:48:15;7.40;69.20
82183;DHT22;71763;52.220;13.000;2023-12-20T12:50:40;7.40;68.70
82183;DHT22;71763;52.220;13.000;2023-12-20T12:53:06;7.40;69.20
82183;DHT22;71763;52.220;13.000;2023-12-20T12:55:32;7.30;69.20
82183;DHT22;71763;52.220;13.000;2023-12-20T12:57:58;7.30;69.30
82183;DHT22;71763;52.220;13.000;2023-12-20T13:00:24;7.30;69.30
82183;DHT22;71763;52.220;13.000;2023-12-20T13:02:50;7.30;69.40
82183;DHT22;71763;52.220;13.000;2023-12-20T13:05:15;7.30;69.30
82183;DHT22;71763;52.220;13.000;2023-12-20T13:07:41;7.30;69.30
82183;DHT22;71763;52.220;13.000;2023-12-20T13:10:10;7.30;69.30
82183;DHT22;71763;52.220;13.000;2023-12-20T13:12:36;7.30;69.30
82183;DHT22;71763;52.220;13.000;2023-12-20T13:15:02;7.30;69.30
82183;DHT22;71763;52.220;13.000;2023-12-20T13:17:29;7.30;69.20
82183;DHT22;71763;52.220;13.000;2023-12-20T13:19:55;7.30;69.20
82183;DHT22;71763;52.220;13.000;2023-12-20T13:22:20;7.30;69.30
82183;DHT22;71763;52.220;13.000;2023-12-20T13:24:49;7.30;69.30
82183;DHT22;71763;52.220;13.000;2023-12-20T13:27:14;7.30;69.40
82183;DHT22;71763;52.220;13.000;2023-12-20T13:29:40;7.30;69.40
82183;DHT22;71763;52.220;13.000;2023-12-20T13:32:06;7.30;69.40
82183;DHT22;71763;52.220;13.000;2023-12-20T13:34:32;7.30;69.30
82183;DHT22;71763;52.220;13.000;2023-12-20T13:36:57;7.30;69.30
82183;DHT22;71763;52.220;13.000;2023-12-20T13:39:23;7.30;69.30
82183;DHT22;71763;52.220;13.000;2023-12-20T13:41:49;7.30;69.30
82183;DHT22;71763;52.220;13.000;2023-12-20T13:44:14;7.30;69.30
82183;DHT22;71763;52.220;13.000;2023-12-20T13:46:41;7.20;69.30
82183;DHT22;71763;52.220;13.000;2023-12-20T13:49:06;7.20;69.50
82183;DHT22;71763;52.220;13.000;2023-12-20T13:51:32;7.10;69.50
82183;DHT22;71763;52.220;13.000;2023-12-20T13:53:57;7.10;69.70
82183;DHT22;71763;52.220;13.000;2023-12-20T13:56:23;7.00;69.90
82183;DHT22;71763;52.220;13.000;2023-12-20T13:58:49;6.90;70.10
82183;DHT22;71763;52.220;13.000;2023-12-20T14:01:16;6.80;70.30
82183;DHT22;71763;52.220;13.000;2023-12-20T14:03:41;6.70;70.40
82183;DHT22;71763;52.220;13.000;2023-12-20T14:06:07;6.70;70.50
82183;DHT22;71763;52.220;13.000;2023-12-20T14:08:32;6.70;70.50
82183;DHT22;71763;52.220;13.000;2023-12-20T14:10:58;6.60;70.50
82183;DHT22;71763;52.220;13.000;2023-12-20T14:13:23;6.60;70.50
82183;DHT22;71763;52.220;13.000;2023-12-20T14:15:49;6.60;70.60
82183;DHT22;71763;52.220;13.000;2023-12-20T14:18:14;6.60;70.60
82183;DHT22;71763;52.220;13.000;2023-12-20T14:20:41;6.50;70.60
82183;DHT22;71763;52.220;13.000;2023-12-20T14:23:08;6.50;70.60
82183;DHT22;71763;52.220;13.000;2023-12-20T14:25:35;6.50;70.60
82183;DHT22;71763;52.220;13.000;2023-12-20T14:28:04;6.40;70.60
82183;DHT22;71763;52.220;13.000;2023-12-20T14:30:30;6.40;70.70
82183;DHT22;71763;52.220;13.000;2023-12-20T14:32:55;6.40;70.80
82183;DHT22;71763;52.220;13.000;2023-12-20T14:35:21;6.30;70.70
82183;DHT22;71763;52.220;13.000;2023-12-20T14:37:46;6.30;70.80
82183;DHT22;71763;52.220;13.000;2023-12-20T14:40:12;6.30;70.80
82183;DHT22;71763;52.220;13.000;2023-12-20T14:42:45;6.30;70.80
82183;DHT22;71763;52.220;13.000;2023-12-20T14:45:11;6.20;70.70
82183;DHT22;71763;52.220;13.000;2023-12-20T14:47:38;6.20;71.30
82183;DHT22;71763;52.220;13.000;2023-12-20T14:50:05;6.20;70.70
82183;DHT22;71763;52.220;13.000;2023-12-20T14:52:32;6.20;70.70
82183;DHT22;71763;52.220;13.000;2023-12-20T14:54:59;6.10;70.60
82183;DHT22;71763;52.220;13.000;2023-12-20T14:57:25;6.10;70.80
82183;DHT22;71763;52.220;13.000;2023-12-20T14:59:51;6.00;71.60
82183;DHT22;71763;52.220;13.000;2023-12-20T15:02:17;6.00;71.00
82183;DHT22;71763;52.220;13.000;2023-12-20T15:04:43;5.90;71.00
82183;DHT22;71763;52.220;13.000;2023-12-20T15:07:08;5.90;71.10
82183;DHT22;71763;52.220;13.000;2023-12-20T15:09:34;5.80;71.30
82183;DHT22;71763;52.220;13.000;2023-12-20T15:11:59;5.80;71.40
82183;DHT22;71763;52.220;13.000;2023-12-20T15:14:26;5.80;71.30
82183;DHT22;71763;52.220;13.000;2023-12-20T15:16:51;5.90;71.30
82183;DHT22;71763;52.220;13.000;2023-12-20T15:19:17;5.90;71.10
82183;DHT22;71763;52.220;13.000;2023-12-20T15:21:42;5.90;71.00
82183;DHT22;71763;52.220;13.000;2023-12-20T15:24:11;5.90;70.90
82183;DHT22;71763;52.220;13.000;2023-12-20T15:26:42;6.00;70.80
82183;DHT22;71763;52.220;13.000;2023-12-20T15:29:08;6.00;70.70
82183;DHT22;71763;52.220;13.000;2023-12-20T15:31:35;6.10;70.60
82183;DHT22;71763;52.220;13.000;2023-12-20T15:34:02;6.10;70.60